createdAt,value
2017-10-26T00:01:09.730Z,11.80
2017-10-26T00:03:35.926Z,11.80
2017-10-26T00:06:02.166Z,11.80
2017-10-26T00:08:28.362Z,11.70
2017-10-26T00:10:55.362Z,11.70
2017-10-26T00:13:21.597Z,11.60
2017-10-26T00:15:47.787Z,11.70
2017-10-26T00:18:14.026Z,11.60
2017-10-26T00:20:40.220Z,11.60
2017-10-26T00:23:06.442Z,11.60
2017-10-26T00:25:33.378Z,11.60
2017-10-26T00:28:00.348Z,11.60
2017-10-26T00:30:30.205Z,11.60
2017-10-26T00:32:56.433Z,11.60
2017-10-26T00:35:22.633Z,11.60
2017-10-26T00:37:48.941Z,11.50
2017-10-26T00:40:15.141Z,11.50
2017-10-26T00:42:41.412Z,11.40
2017-10-26T00:45:07.630Z,11.40
2017-10-26T00:47:33.847Z,11.40
2017-10-26T00:50:00.798Z,11.30
2017-10-26T00:52:27.018Z,11.20
2017-10-26T00:54:53.969Z,11.20
2017-10-26T00:57:20.183Z,11.20
2017-10-26T00:59:47.149Z,11.20
2017-10-26T01:02:13.371Z,11.10
2017-10-26T01:04:39.581Z,11.10
2017-10-26T01:07:05.838Z,11.20
2017-10-26T01:09:32.039Z,11.10
2017-10-26T01:11:59.037Z,11.10
2017-10-26T01:14:25.221Z,11.00
2017-10-26T01:16:52.170Z,11.10
2017-10-26T01:19:18.410Z,11.00
2017-10-26T01:21:44.613Z,11.00
2017-10-26T01:24:11.602Z,10.90
2017-10-26T01:26:37.813Z,10.90
2017-10-26T01:29:04.050Z,10.90
2017-10-26T01:31:30.258Z,11.00
2017-10-26T01:33:56.562Z,11.00
2017-10-26T01:36:22.769Z,11.00
2017-10-26T01:38:49.094Z,11.00
2017-10-26T01:41:15.335Z,11.00
2017-10-26T01:43:41.565Z,11.00
2017-10-26T01:46:07.777Z,11.10
2017-10-26T01:48:34.042Z,11.10
2017-10-26T01:51:01.012Z,11.00
2017-10-26T01:53:27.245Z,11.00
2017-10-26T01:55:53.465Z,11.00
2017-10-26T01:58:19.695Z,11.00
2017-10-26T02:00:45.949Z,11.00
2017-10-26T02:03:12.175Z,11.00
2017-10-26T02:05:38.394Z,11.00
2017-10-26T02:08:04.607Z,11.00
2017-10-26T02:10:30.848Z,11.00
2017-10-26T02:12:57.054Z,11.00
2017-10-26T02:15:23.294Z,11.00
2017-10-26T02:17:49.526Z,11.00
2017-10-26T02:20:15.753Z,11.00
2017-10-26T02:22:41.966Z,11.00
2017-10-26T02:25:08.213Z,11.00
2017-10-26T02:27:34.401Z,11.10
2017-10-26T02:30:12.962Z,11.00
2017-10-26T02:32:39.200Z,11.10
2017-10-26T02:35:05.427Z,11.00
2017-10-26T02:37:31.634Z,11.00
2017-10-26T02:39:57.884Z,11.10
2017-10-26T02:42:24.097Z,11.10
2017-10-26T02:44:50.329Z,11.10
2017-10-26T02:47:16.547Z,11.10
2017-10-26T02:49:42.786Z,11.00
2017-10-26T02:52:08.986Z,11.00
2017-10-26T02:54:36.129Z,11.00
2017-10-26T02:57:03.118Z,11.00
2017-10-26T02:59:29.365Z,11.00
2017-10-26T03:01:55.579Z,11.00
2017-10-26T03:04:21.799Z,10.90
2017-10-26T03:06:48.005Z,10.90
2017-10-26T03:09:14.230Z,10.90
2017-10-26T03:11:41.183Z,11.00
2017-10-26T03:14:07.434Z,10.90
2017-10-26T03:16:33.651Z,11.00
2017-10-26T03:18:59.869Z,11.00
2017-10-26T03:21:26.090Z,11.00
2017-10-26T03:23:53.149Z,11.00
2017-10-26T03:26:19.375Z,11.00
2017-10-26T03:28:45.563Z,11.10
2017-10-26T03:31:11.787Z,11.10
2017-10-26T03:33:37.990Z,11.00
2017-10-26T03:36:04.226Z,11.00
2017-10-26T03:38:31.171Z,11.00
2017-10-26T03:40:58.226Z,11.00
2017-10-26T03:43:25.220Z,11.00
2017-10-26T03:45:51.437Z,11.00
2017-10-26T03:48:18.373Z,11.00
2017-10-26T03:50:45.326Z,11.00
2017-10-26T03:53:12.286Z,11.00
2017-10-26T03:55:38.490Z,11.00
2017-10-26T03:58:04.682Z,11.00
2017-10-26T04:00:30.937Z,11.00
2017-10-26T04:02:57.129Z,11.00
2017-10-26T04:05:23.337Z,11.00
2017-10-26T04:07:49.582Z,11.00
2017-10-26T04:10:15.789Z,11.00
2017-10-26T04:12:42.057Z,11.10
2017-10-26T04:15:08.293Z,11.00
2017-10-26T04:17:34.501Z,11.00
2017-10-26T04:20:00.714Z,11.00
2017-10-26T04:22:26.910Z,11.00
2017-10-26T04:24:53.893Z,11.00
2017-10-26T04:27:20.117Z,10.90
2017-10-26T04:29:46.347Z,10.90
2017-10-26T04:32:12.635Z,10.90
2017-10-26T04:34:39.630Z,11.00
2017-10-26T04:37:05.843Z,10.90
2017-10-26T04:39:32.173Z,11.00
2017-10-26T04:41:58.397Z,11.00
2017-10-26T04:44:24.613Z,11.00
2017-10-26T04:46:50.819Z,11.00
2017-10-26T04:49:17.125Z,11.00
2017-10-26T04:51:43.341Z,11.00
2017-10-26T04:54:09.570Z,11.00
2017-10-26T04:56:35.784Z,11.00
2017-10-26T04:59:01.981Z,11.00
2017-10-26T05:01:28.933Z,11.00
2017-10-26T05:03:55.142Z,11.00
2017-10-26T05:06:22.118Z,11.00
2017-10-26T05:08:48.309Z,11.00
2017-10-26T05:11:15.293Z,11.10
2017-10-26T05:13:41.481Z,11.10
2017-10-26T05:16:08.434Z,11.20
2017-10-26T05:18:35.364Z,11.20
2017-10-26T05:21:01.890Z,11.20
2017-10-26T05:23:28.085Z,11.20
2017-10-26T05:25:54.298Z,11.20
2017-10-26T05:28:20.513Z,11.20
2017-10-26T05:30:46.730Z,11.20
2017-10-26T05:33:13.676Z,11.10
2017-10-26T05:35:40.686Z,11.10
2017-10-26T05:38:06.929Z,11.10
2017-10-26T05:40:33.195Z,11.20
2017-10-26T05:42:59.457Z,11.10
2017-10-26T05:45:25.701Z,11.20
2017-10-26T05:47:51.910Z,11.20
2017-10-26T05:50:18.123Z,11.20
2017-10-26T05:52:44.350Z,11.30
2017-10-26T05:55:10.567Z,11.30
2017-10-26T05:57:36.789Z,11.20
2017-10-26T06:00:03.032Z,11.20
2017-10-26T06:02:29.273Z,11.30
2017-10-26T06:04:55.468Z,11.30
2017-10-26T06:07:21.677Z,11.40
2017-10-26T06:09:48.601Z,11.30
2017-10-26T06:12:14.829Z,11.40
2017-10-26T06:14:41.039Z,11.40
2017-10-26T06:17:07.254Z,11.30
2017-10-26T06:19:33.917Z,11.30
2017-10-26T06:22:00.150Z,11.20
2017-10-26T06:24:26.345Z,11.10
2017-10-26T06:26:52.554Z,11.10
2017-10-26T06:29:18.769Z,11.00
2017-10-26T06:31:45.726Z,11.10
2017-10-26T06:34:11.924Z,11.10
2017-10-26T06:36:38.157Z,11.10
2017-10-26T06:39:05.130Z,11.10
2017-10-26T06:41:31.434Z,11.10
2017-10-26T06:43:57.633Z,11.10
2017-10-26T06:46:23.857Z,11.00
2017-10-26T06:48:50.085Z,11.10
2017-10-26T06:51:16.357Z,11.10
2017-10-26T06:53:43.310Z,11.20
2017-10-26T06:56:09.623Z,11.20
2017-10-26T06:58:36.569Z,11.20
2017-10-26T07:01:03.525Z,11.20
2017-10-26T07:03:30.456Z,11.20
2017-10-26T07:05:57.424Z,11.30
2017-10-26T07:08:23.616Z,11.30
2017-10-26T07:10:49.845Z,11.30
2017-10-26T07:13:16.050Z,11.30
2017-10-26T07:15:42.296Z,11.30
2017-10-26T07:18:08.498Z,11.30
2017-10-26T07:20:34.722Z,11.30
2017-10-26T07:23:00.918Z,11.30
2017-10-26T07:25:27.113Z,11.40
2017-10-26T07:27:53.580Z,11.40
2017-10-26T07:30:19.782Z,11.50
2017-10-26T07:32:46.009Z,11.60
2017-10-26T07:35:12.954Z,11.60
2017-10-26T07:37:39.185Z,11.60
2017-10-26T07:40:06.126Z,11.70
2017-10-26T07:42:33.134Z,11.80
2017-10-26T07:44:59.360Z,11.80
2017-10-26T07:47:25.607Z,11.90
2017-10-26T07:49:51.825Z,12.00
2017-10-26T07:52:18.045Z,12.10
2017-10-26T07:54:44.257Z,12.20
2017-10-26T07:57:10.484Z,12.30
2017-10-26T07:59:36.677Z,12.30
2017-10-26T08:02:03.674Z,12.50
2017-10-26T08:04:29.880Z,12.50
2017-10-26T08:06:56.105Z,12.60
2017-10-26T08:09:22.329Z,12.70
2017-10-26T08:11:48.536Z,12.80
2017-10-26T08:14:15.481Z,13.10
2017-10-26T08:16:42.442Z,13.20
2017-10-26T08:19:09.387Z,13.10
2017-10-26T08:21:35.735Z,13.10
2017-10-26T08:24:01.937Z,13.10
2017-10-26T08:26:28.894Z,13.00
2017-10-26T08:28:55.103Z,13.00
2017-10-26T08:31:22.117Z,13.20
2017-10-26T08:33:49.060Z,13.20
2017-10-26T08:36:15.271Z,13.20
2017-10-26T08:38:41.494Z,13.20
2017-10-26T08:41:08.042Z,13.20
2017-10-26T08:43:34.301Z,13.40
2017-10-26T08:46:00.509Z,13.40
2017-10-26T08:48:26.733Z,13.50
2017-10-26T08:50:52.938Z,13.50
2017-10-26T08:53:19.174Z,13.60
2017-10-26T08:55:45.373Z,13.60
2017-10-26T08:58:11.594Z,13.50
2017-10-26T09:00:38.553Z,13.50
2017-10-26T09:03:04.782Z,13.50
2017-10-26T09:05:30.981Z,13.60
2017-10-26T09:07:57.210Z,13.60
2017-10-26T09:10:24.166Z,13.70
2017-10-26T09:12:51.149Z,13.70
2017-10-26T09:15:17.373Z,13.70
2017-10-26T09:17:43.638Z,13.70
2017-10-26T09:20:09.842Z,13.70
2017-10-26T09:22:36.059Z,13.80
2017-10-26T09:25:02.294Z,14.00
2017-10-26T09:27:28.502Z,14.00
2017-10-26T09:29:54.732Z,13.90
2017-10-26T09:32:20.933Z,13.90
2017-10-26T09:34:47.904Z,14.00
2017-10-26T09:37:14.133Z,13.90
2017-10-26T09:39:40.366Z,14.10
2017-10-26T09:42:06.758Z,14.00
2017-10-26T09:44:33.727Z,14.00
2017-10-26T09:46:59.961Z,14.00
2017-10-26T09:49:26.207Z,14.00
2017-10-26T09:51:52.418Z,14.20
2017-10-26T09:54:18.653Z,14.10
2017-10-26T09:56:44.873Z,14.10
2017-10-26T09:59:11.098Z,14.10
2017-10-26T10:01:38.118Z,14.30
2017-10-26T10:04:04.362Z,14.20
2017-10-26T10:06:31.317Z,14.30
2017-10-26T10:08:57.599Z,14.20
2017-10-26T10:11:23.802Z,14.20
2017-10-26T10:13:50.070Z,14.20
2017-10-26T10:16:16.288Z,14.10
2017-10-26T10:18:42.507Z,14.20
2017-10-26T10:21:08.733Z,14.10
2017-10-26T10:23:34.962Z,14.30
2017-10-26T10:26:01.193Z,14.40
2017-10-26T10:28:27.404Z,14.40
2017-10-26T10:30:53.642Z,14.40
2017-10-26T10:33:19.878Z,14.50
2017-10-26T10:35:46.126Z,14.40
2017-10-26T10:38:12.351Z,14.40
2017-10-26T10:40:38.578Z,14.50
2017-10-26T10:43:04.821Z,14.40
2017-10-26T10:45:31.820Z,14.40
2017-10-26T10:47:58.049Z,14.40
2017-10-26T10:50:24.259Z,14.40
2017-10-26T10:52:50.518Z,14.40
2017-10-26T10:55:16.722Z,14.50
2017-10-26T10:57:42.948Z,14.40
2017-10-26T11:00:15.153Z,14.40
2017-10-26T11:02:41.393Z,14.40
2017-10-26T11:05:07.593Z,14.40
2017-10-26T11:07:33.916Z,14.50
2017-10-26T11:10:00.199Z,14.50
2017-10-26T11:12:27.179Z,14.70
2017-10-26T11:14:53.403Z,14.70
2017-10-26T11:17:19.620Z,14.70
2017-10-26T11:19:45.841Z,14.80
2017-10-26T11:22:12.082Z,15.00
2017-10-26T11:24:38.306Z,15.00
2017-10-26T11:27:04.510Z,15.20
2017-10-26T11:29:31.505Z,15.30
2017-10-26T11:31:57.786Z,15.30
2017-10-26T11:34:24.025Z,15.50
2017-10-26T11:36:50.974Z,15.50
2017-10-26T11:39:17.233Z,15.40
2017-10-26T11:41:43.469Z,15.40
2017-10-26T11:44:09.738Z,15.20
2017-10-26T11:46:36.701Z,15.20
2017-10-26T11:49:03.670Z,15.00
2017-10-26T11:51:29.898Z,15.00
2017-10-26T11:53:56.141Z,15.00
2017-10-26T11:56:22.365Z,15.20
2017-10-26T11:58:48.588Z,15.30
2017-10-26T12:01:14.825Z,15.40
2017-10-26T12:03:41.249Z,15.40
2017-10-26T12:06:07.455Z,15.50
2017-10-26T12:08:33.676Z,15.20
2017-10-26T12:11:00.654Z,15.20
2017-10-26T12:13:26.872Z,15.20
2017-10-26T12:15:53.092Z,15.20
2017-10-26T12:18:19.302Z,15.10
2017-10-26T12:20:46.269Z,15.10
2017-10-26T12:23:12.510Z,15.00
2017-10-26T12:25:38.739Z,15.20
2017-10-26T12:28:04.941Z,15.30
2017-10-26T12:30:31.933Z,15.40
2017-10-26T12:32:58.145Z,15.40
2017-10-26T12:35:24.575Z,15.30
2017-10-26T12:37:50.793Z,15.40
2017-10-26T12:40:17.038Z,15.30
2017-10-26T12:42:43.270Z,15.40
2017-10-26T12:45:09.505Z,15.30
2017-10-26T12:47:35.696Z,15.20
2017-10-26T12:50:01.922Z,15.20
2017-10-26T12:52:28.128Z,15.30
2017-10-26T12:54:55.124Z,15.80
2017-10-26T12:57:21.349Z,15.80
2017-10-26T12:59:47.553Z,15.90
2017-10-26T13:02:13.800Z,16.10
2017-10-26T13:04:39.998Z,16.30
2017-10-26T13:07:06.997Z,15.80
2017-10-26T13:09:33.230Z,15.70
2017-10-26T13:11:59.478Z,15.60
2017-10-26T13:14:25.690Z,15.60
2017-10-26T13:16:51.925Z,15.70
2017-10-26T13:19:18.139Z,15.70
2017-10-26T13:21:45.108Z,16.00
2017-10-26T13:24:11.313Z,16.00
2017-10-26T13:26:37.546Z,15.70
2017-10-26T13:29:03.764Z,15.60
2017-10-26T13:31:29.994Z,15.60
2017-10-26T13:33:56.190Z,15.50
2017-10-26T13:36:22.409Z,15.50
2017-10-26T13:38:48.615Z,15.60
2017-10-26T13:41:14.832Z,15.70
2017-10-26T13:43:41.104Z,15.70
2017-10-26T13:46:07.320Z,15.80
2017-10-26T13:48:33.548Z,15.60
2017-10-26T13:50:59.754Z,15.50
2017-10-26T13:53:26.700Z,15.80
2017-10-26T13:55:53.645Z,15.80
2017-10-26T13:58:20.599Z,15.80
2017-10-26T14:00:47.549Z,16.20
2017-10-26T14:03:14.573Z,16.10
2017-10-26T14:05:40.777Z,16.00
2017-10-26T14:08:07.021Z,16.00
2017-10-26T14:10:33.221Z,16.10
2017-10-26T14:12:59.443Z,16.20
2017-10-26T14:15:26.389Z,16.10
2017-10-26T14:17:52.635Z,16.00
2017-10-26T14:20:18.817Z,16.00
2017-10-26T14:22:45.006Z,16.10
2017-10-26T14:25:11.228Z,16.10
2017-10-26T14:27:37.482Z,15.80
2017-10-26T14:30:03.782Z,15.60
2017-10-26T14:32:29.991Z,15.50
2017-10-26T14:34:56.209Z,15.40
2017-10-26T14:37:22.445Z,15.40
2017-10-26T14:39:48.649Z,15.40
2017-10-26T14:42:14.875Z,15.20
2017-10-26T14:44:41.100Z,15.10
2017-10-26T14:47:07.301Z,15.00
2017-10-26T14:49:34.269Z,15.00
2017-10-26T14:52:00.494Z,15.00
2017-10-26T14:54:26.720Z,15.00
2017-10-26T14:56:53.661Z,14.70
2017-10-26T14:59:20.612Z,14.70
2017-10-26T15:01:46.809Z,14.70
2017-10-26T15:04:13.040Z,14.70
2017-10-26T15:06:39.230Z,14.70
2017-10-26T15:09:05.441Z,14.70
2017-10-26T15:11:31.636Z,14.60
2017-10-26T15:13:58.598Z,14.40
2017-10-26T15:16:25.537Z,14.30
2017-10-26T15:18:52.492Z,14.30
2017-10-26T15:21:18.677Z,14.30
2017-10-26T15:23:44.898Z,14.30
2017-10-26T15:26:11.096Z,14.30
2017-10-26T15:28:37.413Z,14.30
2017-10-26T15:31:03.602Z,14.20
2017-10-26T15:33:30.545Z,14.10
2017-10-26T15:35:56.767Z,14.10
2017-10-26T15:38:22.950Z,14.00
2017-10-26T15:40:49.166Z,14.10
2017-10-26T15:43:15.381Z,14.00
2017-10-26T15:45:42.338Z,13.90
2017-10-26T15:48:08.538Z,13.90
2017-10-26T15:50:35.501Z,13.80
2017-10-26T15:53:01.689Z,13.80
2017-10-26T15:55:27.906Z,13.80
2017-10-26T15:57:54.095Z,13.80
2017-10-26T16:00:20.330Z,13.70
2017-10-26T16:02:46.761Z,13.70
2017-10-26T16:05:12.988Z,13.60
2017-10-26T16:07:39.225Z,13.60
2017-10-26T16:10:05.439Z,13.50
2017-10-26T16:12:31.654Z,13.50
2017-10-26T16:14:57.937Z,13.50
2017-10-26T16:17:24.197Z,13.50
2017-10-26T16:19:51.150Z,13.40
2017-10-26T16:22:18.084Z,13.40
2017-10-26T16:24:44.297Z,13.40
2017-10-26T16:27:10.495Z,13.40
2017-10-26T16:29:36.686Z,13.40
2017-10-26T16:32:02.918Z,13.40
2017-10-26T16:34:29.117Z,13.40
2017-10-26T16:36:56.093Z,13.40
2017-10-26T16:39:22.290Z,13.40
2017-10-26T16:41:48.634Z,13.40
2017-10-26T16:44:16.299Z,13.40
2017-10-26T16:46:43.271Z,13.40
2017-10-26T16:49:09.468Z,13.40
2017-10-26T16:51:35.691Z,13.40
2017-10-26T16:54:02.639Z,13.40
2017-10-26T16:56:29.590Z,13.40
2017-10-26T16:58:56.513Z,13.40
2017-10-26T17:01:22.718Z,13.40
2017-10-26T17:03:48.901Z,13.40
2017-10-26T17:06:15.129Z,13.40
2017-10-26T17:08:41.423Z,13.40
2017-10-26T17:11:07.637Z,13.40
2017-10-26T17:13:33.850Z,13.40
2017-10-26T17:16:00.047Z,13.40
2017-10-26T17:18:26.253Z,13.40
2017-10-26T17:20:53.181Z,13.40
2017-10-26T17:23:19.391Z,13.40
2017-10-26T17:25:46.345Z,13.40
2017-10-26T17:28:12.556Z,13.40
2017-10-26T17:30:38.754Z,13.40
2017-10-26T17:33:04.965Z,13.40
2017-10-26T17:35:31.903Z,13.40
2017-10-26T17:37:58.209Z,13.50
2017-10-26T17:40:24.409Z,13.40
2017-10-26T17:42:50.661Z,13.50
2017-10-26T17:45:16.869Z,13.50
2017-10-26T17:47:43.073Z,13.50
2017-10-26T17:50:09.269Z,13.50
2017-10-26T17:52:36.219Z,13.50
2017-10-26T17:55:02.415Z,13.50
2017-10-26T17:57:28.624Z,13.50
2017-10-26T17:59:54.818Z,13.50
2017-10-26T18:02:21.107Z,13.50
2017-10-26T18:04:47.311Z,13.50
2017-10-26T18:07:13.497Z,13.50
2017-10-26T18:09:39.717Z,13.50
2017-10-26T18:12:06.671Z,13.40
2017-10-26T18:14:32.853Z,13.40
2017-10-26T18:16:59.179Z,13.40
2017-10-26T18:19:25.365Z,13.40
2017-10-26T18:21:51.578Z,13.40
2017-10-26T18:24:18.533Z,13.40
2017-10-26T18:26:44.727Z,13.30
2017-10-26T18:29:10.934Z,13.40
2017-10-26T18:31:37.131Z,13.40
2017-10-26T18:34:03.344Z,13.40
2017-10-26T18:36:29.536Z,13.40
2017-10-26T18:38:55.759Z,13.40
2017-10-26T18:41:21.966Z,13.40
2017-10-26T18:43:48.202Z,13.30
2017-10-26T18:46:14.616Z,13.30
2017-10-26T18:48:40.837Z,13.40
2017-10-26T18:51:07.026Z,13.30
2017-10-26T18:53:33.978Z,13.30
2017-10-26T18:56:00.186Z,13.30
2017-10-26T18:58:26.398Z,13.30
2017-10-26T19:00:52.605Z,13.30
2017-10-26T19:03:18.934Z,13.30
2017-10-26T19:05:45.149Z,13.30
2017-10-26T19:08:11.345Z,13.30
2017-10-26T19:10:37.611Z,13.30
2017-10-26T19:13:03.810Z,13.30
2017-10-26T19:15:30.038Z,13.30
2017-10-26T19:17:56.233Z,13.30
2017-10-26T19:20:22.441Z,13.30
2017-10-26T19:22:48.634Z,13.20
2017-10-26T19:25:14.849Z,13.20
2017-10-26T19:27:41.792Z,13.10
2017-10-26T19:30:08.775Z,13.10
2017-10-26T19:32:34.963Z,13.10
2017-10-26T19:35:01.919Z,13.10
2017-10-26T19:37:28.096Z,13.10
2017-10-26T19:39:54.321Z,13.20
2017-10-26T19:42:20.559Z,13.20
2017-10-26T19:44:46.888Z,13.10
2017-10-26T19:47:13.073Z,13.10
2017-10-26T19:49:39.485Z,13.10
2017-10-26T19:54:49.393Z,13.10
2017-10-26T19:57:15.555Z,13.00
2017-10-26T19:59:42.466Z,13.10
2017-10-26T20:02:08.728Z,13.00
2017-10-26T20:04:35.001Z,13.00
2017-10-26T20:07:02.002Z,13.00
2017-10-26T20:09:28.174Z,13.00
2017-10-26T20:11:54.384Z,13.00
2017-10-26T20:14:20.544Z,13.00
2017-10-26T20:16:46.749Z,13.00
2017-10-26T20:19:12.917Z,13.00
2017-10-26T20:21:39.138Z,12.90
2017-10-26T20:24:05.297Z,12.90
2017-10-26T20:26:31.491Z,12.90
2017-10-26T20:28:58.404Z,12.70
2017-10-26T20:31:24.623Z,12.80
2017-10-26T20:33:50.831Z,12.70
2017-10-26T20:36:17.744Z,12.60
2017-10-26T20:38:44.022Z,12.60
2017-10-26T20:41:10.387Z,12.60
2017-10-26T20:43:36.605Z,12.60
2017-10-26T20:46:03.605Z,12.50
2017-10-26T20:48:29.992Z,12.50
2017-10-26T20:51:02.228Z,12.50
2017-10-26T20:53:49.210Z,12.40
2017-10-26T20:56:21.527Z,12.40
2017-10-26T20:58:53.894Z,12.50
2017-10-26T21:01:26.284Z,12.40
2017-10-26T21:03:58.600Z,12.40
2017-10-26T21:06:24.813Z,12.50
2017-10-26T21:08:57.188Z,12.50
2017-10-26T21:11:29.734Z,12.50
2017-10-26T21:14:02.041Z,12.40
2017-10-26T21:16:28.213Z,12.40
2017-10-26T21:18:54.386Z,12.40
2017-10-26T21:21:21.314Z,12.30
2017-10-26T21:23:47.494Z,12.30
2017-10-26T21:26:13.697Z,12.20
2017-10-26T21:28:39.887Z,12.20
2017-10-26T21:31:06.219Z,12.10
2017-10-26T21:33:38.415Z,12.10
2017-10-26T21:36:04.705Z,12.00
2017-10-26T21:38:30.914Z,11.90
2017-10-26T21:40:57.119Z,12.00
2017-10-26T21:43:24.045Z,12.00
2017-10-26T21:45:51.707Z,11.90
2017-10-26T21:48:17.920Z,11.90
2017-10-26T21:50:44.209Z,12.00
2017-10-26T21:53:10.437Z,12.00
2017-10-26T21:55:37.751Z,12.00
2017-10-26T21:58:04.725Z,12.00
2017-10-26T22:00:30.884Z,12.00
2017-10-26T22:02:57.057Z,12.00
2017-10-26T22:05:23.240Z,11.90
2017-10-26T22:07:50.163Z,11.80
2017-10-26T22:10:16.568Z,11.80
2017-10-26T22:12:42.785Z,11.60
2017-10-26T22:15:09.742Z,11.70
2017-10-26T22:17:36.170Z,11.60
2017-10-26T22:20:02.372Z,11.60
2017-10-26T22:22:29.285Z,11.60
2017-10-26T22:24:56.227Z,11.60
2017-10-26T22:27:22.416Z,11.50
2017-10-26T22:29:48.611Z,11.60
2017-10-26T22:32:15.005Z,11.60
2017-10-26T22:34:41.203Z,11.50
2017-10-26T22:37:07.408Z,11.50
2017-10-26T22:39:33.600Z,11.50
2017-10-26T22:42:00.549Z,11.50
2017-10-26T22:44:26.751Z,11.50
2017-10-26T22:46:52.935Z,11.50
2017-10-26T22:49:19.876Z,11.50
2017-10-26T22:51:46.172Z,11.50
2017-10-26T22:54:12.507Z,11.50
2017-10-26T22:56:38.809Z,11.50
2017-10-26T22:59:05.021Z,11.50
2017-10-26T23:01:31.189Z,11.50
2017-10-26T23:03:57.408Z,11.50
2017-10-26T23:06:23.593Z,11.50
2017-10-26T23:08:49.808Z,11.50
2017-10-26T23:11:16.088Z,11.50
2017-10-26T23:13:43.051Z,11.50
2017-10-26T23:16:09.997Z,11.50
2017-10-26T23:18:36.393Z,11.40
2017-10-26T23:21:02.572Z,11.50
2017-10-26T23:23:28.745Z,11.50
2017-10-26T23:25:54.971Z,11.50
2017-10-26T23:28:21.915Z,11.50
2017-10-26T23:30:48.081Z,11.50
2017-10-26T23:33:15.091Z,11.40
2017-10-26T23:35:41.358Z,11.40
2017-10-26T23:38:07.615Z,11.40
2017-10-26T23:40:34.987Z,11.40
2017-10-26T23:43:01.896Z,11.40
2017-10-26T23:45:28.090Z,11.30
2017-10-26T23:47:55.032Z,11.30
2017-10-26T23:50:21.221Z,11.30
2017-10-26T23:52:47.390Z,11.20
2017-10-26T23:55:14.426Z,11.20
2017-10-26T23:57:40.656Z,11.20
